Time,TemperatureF,DewpointF,PressureIn,WindDirection,WindDirectionDegrees,WindSpeedMPH,WindSpeedGustMPH,Humidity,HourlyPrecipIn,Conditions,Clouds,dailyrainin,SoftwareType,DateUTC
2013-05-23 00:00:00,50.8,48.0,30.07,North,5,5.0,5.0,90,0.00,,,0.10,Wunderground v.1.15,2013-05-23 05:00:00,
2013-05-23 00:10:00,50.8,48.0,30.07,North,355,7.0,9.0,90,0.00,,,0.10,Wunderground v.1.15,2013-05-23 05:10:00,
2013-05-23 00:20:00,50.8,48.0,30.07,North,5,6.0,9.0,90,0.00,,,0.10,Wunderground v.1.15,2013-05-23 05:20:00,
2013-05-23 00:25:00,50.7,47.9,30.07,NNW,331,7.0,9.0,90,0.00,,,0.10,Wunderground v.1.15,2013-05-23 05:25:00,
2013-05-23 00:30:00,50.8,48.0,30.08,North,355,7.0,7.0,90,0.00,,,0.10,Wunderground v.1.15,2013-05-23 05:30:00,
2013-05-23 00:40:00,50.8,48.0,30.08,NNW,343,7.0,10.0,90,0.00,,,0.10,Wunderground v.1.15,2013-05-23 05:40:00,
2013-05-23 00:50:00,50.8,48.0,30.08,North,350,6.0,6.0,90,0.00,,,0.10,Wunderground v.1.15,2013-05-23 05:50:00,
2013-05-23 01:00:00,50.8,48.0,30.08,NNW,343,5.0,5.0,90,0.00,,,0.10,Wunderground v.1.15,2013-05-23 06:00:00,
2013-05-23 01:05:00,50.8,48.0,30.08,NNW,331,5.0,7.0,90,0.00,,,0.00,Wunderground v.1.15,2013-05-23 06:05:00,
2013-05-23 01:15:00,50.8,48.0,30.08,North,355,5.0,9.0,90,0.00,,,0.00,Wunderground v.1.15,2013-05-23 06:15:00,
2013-05-23 01:20:00,50.8,48.0,30.08,NNW,337,5.0,5.0,90,0.00,,,0.00,Wunderground v.1.15,2013-05-23 06:20:00,
2013-05-23 01:30:00,50.7,47.9,30.08,North,355,5.0,9.0,90,0.00,,,0.00,Wunderground v.1.15,2013-05-23 06:30:00,
2013-05-23 01:40:00,50.9,48.1,30.08,NNW,338,5.0,9.0,90,0.00,,,0.00,Wunderground v.1.15,2013-05-23 06:40:00,
2013-05-23 01:50:00,50.8,48.0,30.08,NNW,338,4.0,4.0,90,0.00,,,0.00,Wunderground v.1.15,2013-05-23 06:50:00,
2013-05-23 02:00:00,50.8,48.0,30.08,NW,323,4.0,4.0,90,0.00,,,0.00,Wunderground v.1.15,2013-05-23 07:00:00,
2013-05-23 02:05:00,50.8,48.0,30.08,NW,318,4.0,9.0,90,0.00,,,0.00,Wunderground v.1.15,2013-05-23 07:05:00,
2013-05-23 02:15:00,50.8,48.0,30.08,NW,323,4.0,9.0,90,0.00,,,0.00,Wunderground v.1.15,2013-05-23 07:15:00,
2013-05-23 02:25:00,50.9,48.1,30.08,NNW,338,4.0,9.0,90,0.00,,,0.00,Wunderground v.1.15,2013-05-23 07:25:00,
2013-05-23 02:30:00,50.8,48.0,30.08,NW,323,5.0,5.0,90,0.00,,,0.00,Wunderground v.1.15,2013-05-23 07:30:00,
2013-05-23 02:40:00,50.7,47.9,30.09,North,355,5.0,9.0,90,0.00,,,0.00,Wunderground v.1.15,2013-05-23 07:40:00,
2013-05-23 02:50:00,50.4,47.6,30.09,North,350,6.0,9.0,90,0.00,,,0.00,Wunderground v.1.15,2013-05-23 07:50:00,
2013-05-23 03:00:00,49.8,47.0,30.09,NW,326,5.0,9.0,90,0.00,,,0.00,Wunderground v.1.15,2013-05-23 08:00:00,
2013-05-23 03:10:00,49.4,46.6,30.10,North,355,7.0,7.0,90,0.00,,,0.00,Wunderground v.1.15,2013-05-23 08:10:00,
2013-05-23 03:15:00,49.2,46.4,30.10,North,355,6.0,9.0,90,0.00,,,0.00,Wunderground v.1.15,2013-05-23 08:15:00,
2013-05-23 03:20:00,49.0,46.2,30.11,NNW,341,5.0,9.0,90,0.00,,,0.00,Wunderground v.1.15,2013-05-23 08:20:00,
2013-05-23 03:30:00,48.7,45.9,30.11,North,355,5.0,9.0,90,0.00,,,0.00,Wunderground v.1.15,2013-05-23 08:30:00,
2013-05-23 03:40:00,48.5,45.7,30.11,North,355,4.0,9.0,90,0.00,,,0.00,Wunderground v.1.15,2013-05-23 08:40:00,
2013-05-23 03:50:00,48.1,45.3,30.11,NNW,348,4.0,4.0,90,0.00,,,0.00,Wunderground v.1.15,2013-05-23 08:50:00,
2013-05-23 04:00:00,47.8,45.0,30.12,NNW,342,3.0,9.0,90,0.00,,,0.00,Wunderground v.1.15,2013-05-23 09:00:00,
2013-05-23 04:05:00,47.6,44.8,30.12,NNE,32,3.0,9.0,90,0.00,,,0.00,Wunderground v.1.15,2013-05-23 09:05:00,
2013-05-23 04:10:00,47.4,44.6,30.12,NNE,27,3.0,3.0,90,0.00,,,0.00,Wunderground v.1.15,2013-05-23 09:10:00,
2013-05-23 04:20:00,47.2,44.4,30.13,NNE,17,2.0,9.0,90,0.00,,,0.00,Wunderground v.1.15,2013-05-23 09:20:00,
2013-05-23 04:30:00,47.0,44.2,30.13,NNE,15,3.0,3.0,90,0.00,,,0.00,Wunderground v.1.15,2013-05-23 09:30:00,
2013-05-23 04:40:00,46.7,43.9,30.13,NE,47,3.0,9.0,90,0.00,,,0.00,Wunderground v.1.15,2013-05-23 09:40:00,
2013-05-23 04:50:00,46.6,43.8,30.13,NNE,32,3.0,3.0,90,0.00,,,0.00,Wunderground v.1.15,2013-05-23 09:50:00,
2013-05-23 04:55:00,46.5,43.4,30.13,NNE,32,3.0,9.0,89,0.00,,,0.00,Wunderground v.1.15,2013-05-23 09:55:00,
2013-05-23 05:00:00,46.4,43.3,30.14,NE,35,3.0,9.0,89,0.00,,,0.00,Wunderground v.1.15,2013-05-23 10:00:00,
2013-05-23 05:10:00,46.3,43.2,30.14,NE,35,3.0,3.0,89,0.00,,,0.00,Wunderground v.1.15,2013-05-23 10:10:00,
2013-05-23 05:20:00,46.4,43.3,30.15,NNE,29,4.0,4.0,89,0.00,,,0.00,Wunderground v.1.15,2013-05-23 10:20:00,
2013-05-23 05:30:00,46.7,43.6,30.16,NNE,25,3.0,9.0,89,0.00,,,0.00,Wunderground v.1.15,2013-05-23 10:30:00,
2013-05-23 05:40:00,47.0,43.9,30.16,NNE,29,3.0,9.0,89,0.00,,,0.00,Wunderground v.1.15,2013-05-23 10:40:00,
2013-05-23 05:45:00,47.0,43.9,30.16,NE,40,3.0,9.0,89,0.00,,,0.00,Wunderground v.1.15,2013-05-23 10:45:00,
2013-05-23 05:55:00,47.1,44.0,30.16,NNE,22,3.0,9.0,89,0.00,,,0.00,Wunderground v.1.15,2013-05-23 10:55:00,
2013-05-23 06:00:00,47.1,44.0,30.17,NNE,24,3.0,3.0,89,0.00,,,0.00,Wunderground v.1.15,2013-05-23 11:00:00,
2013-05-23 06:10:00,47.0,43.9,30.18,North,355,2.0,2.0,89,0.00,,,0.00,Wunderground v.1.15,2013-05-23 11:10:00,
2013-05-23 06:20:00,47.0,43.9,30.17,NE,35,2.0,8.0,89,0.00,,,0.00,Wunderground v.1.15,2013-05-23 11:20:00,
2013-05-23 06:30:00,47.0,43.9,30.18,NNE,28,2.0,8.0,89,0.00,,,0.00,Wunderground v.1.15,2013-05-23 11:30:00,
2013-05-23 06:40:00,46.9,43.8,30.19,North,355,2.0,2.0,89,0.00,,,0.00,Wunderground v.1.15,2013-05-23 11:40:00,
2013-05-23 06:45:00,46.8,43.7,30.19,NNE,24,2.0,8.0,89,0.00,,,0.00,Wunderground v.1.15,2013-05-23 11:45:00,
2013-05-23 06:55:00,46.8,43.7,30.19,North,355,2.0,8.0,89,0.00,,,0.00,Wunderground v.1.15,2013-05-23 11:55:00,
2013-05-23 07:00:00,46.8,43.7,30.20,NE,36,2.0,8.0,89,0.00,,,0.00,Wunderground v.1.15,2013-05-23 12:00:00,
2013-05-23 07:10:00,46.8,43.7,30.20,North,11,2.0,2.0,89,0.00,,,0.00,Wunderground v.1.15,2013-05-23 12:10:00,
2013-05-23 07:20:00,47.0,43.9,30.21,North,360,2.0,8.0,89,0.00,,,0.00,Wunderground v.1.15,2013-05-23 12:20:00,
2013-05-23 07:30:00,47.2,44.1,30.21,NNW,339,2.0,8.0,89,0.00,,,0.00,Wunderground v.1.15,2013-05-23 12:30:00,
2013-05-23 07:40:00,47.3,44.2,30.22,NNE,25,2.0,8.0,89,0.00,,,0.00,Wunderground v.1.15,2013-05-23 12:40:00,
2013-05-23 07:45:00,47.3,43.9,30.22,NNE,27,2.0,8.0,88,0.00,,,0.00,Wunderground v.1.15,2013-05-23 12:45:00,
2013-05-23 07:50:00,47.4,44.0,30.22,NNE,26,2.0,8.0,88,0.00,,,0.00,Wunderground v.1.15,2013-05-23 12:50:00,
2013-05-23 08:00:00,48.1,44.7,30.21,NNE,29,4.0,4.0,88,0.00,,,0.00,Wunderground v.1.15,2013-05-23 13:00:00,
2013-05-23 08:10:00,48.8,45.1,30.22,NNE,14,4.0,8.0,87,0.00,,,0.00,Wunderground v.1.15,2013-05-23 13:10:00,
2013-05-23 08:20:00,49.7,45.7,30.23,NNE,27,2.0,8.0,86,0.00,,,0.00,Wunderground v.1.15,2013-05-23 13:20:00,
2013-05-23 08:30:00,50.3,46.0,30.23,NE,48,3.0,3.0,85,0.00,,,0.00,Wunderground v.1.15,2013-05-23 13:30:00,
2013-05-23 08:35:00,50.5,45.8,30.24,NE,51,3.0,8.0,84,0.00,,,0.00,Wunderground v.1.15,2013-05-23 13:35:00,
2013-05-23 08:40:00,50.6,45.6,30.24,NE,44,3.0,3.0,83,0.00,,,0.00,Wunderground v.1.15,2013-05-23 13:40:00,
2013-05-23 08:50:00,50.9,45.3,30.24,NNE,28,3.0,3.0,81,0.00,,,0.00,Wunderground v.1.15,2013-05-23 13:50:00,
2013-05-23 09:00:00,51.4,45.8,30.24,NE,50,5.0,5.0,81,0.00,,,0.00,Wunderground v.1.15,2013-05-23 14:00:00,
2013-05-23 09:10:00,52.1,46.1,30.24,NE,42,6.0,6.0,80,0.00,,,0.00,Wunderground v.1.15,2013-05-23 14:10:00,
2013-05-23 09:20:00,52.8,46.5,30.23,NE,36,5.0,8.0,79,0.00,,,0.00,Wunderground v.1.15,2013-05-23 14:20:00,
2013-05-23 09:25:00,52.9,46.2,30.24,East,79,6.0,8.0,78,0.00,,,0.00,Wunderground v.1.15,2013-05-23 14:25:00,
2013-05-23 09:35:00,53.7,46.3,30.24,NE,38,5.0,8.0,76,0.00,,,0.00,Wunderground v.1.15,2013-05-23 14:35:00,
2013-05-23 09:40:00,53.7,46.0,30.24,ENE,65,7.0,11.0,75,0.00,,,0.00,Wunderground v.1.15,2013-05-23 14:40:00,
2013-05-23 09:50:00,54.0,47.3,30.24,East,79,9.0,12.0,78,0.00,,,0.00,Wunderground v.1.15,2013-05-23 14:50:00,
2013-05-23 10:00:00,54.5,46.7,30.24,ENE,67,7.0,8.0,75,0.00,,,0.00,Wunderground v.1.15,2013-05-23 15:00:00,
2013-05-23 10:10:00,55.3,47.5,30.25,NE,53,7.0,7.0,75,0.00,,,0.00,Wunderground v.1.15,2013-05-23 15:10:00,
2013-05-23 10:20:00,55.8,47.3,30.25,East,81,7.0,7.0,73,0.00,,,0.00,Wunderground v.1.15,2013-05-23 15:20:00,
2013-05-23 10:25:00,56.0,47.5,30.25,East,101,6.0,8.0,73,0.00,,,0.00,Wunderground v.1.15,2013-05-23 15:25:00,
2013-05-23 10:35:00,56.9,47.6,30.26,ENE,75,5.0,8.0,71,0.00,,,0.00,Wunderground v.1.15,2013-05-23 15:35:00,
2013-05-23 10:40:00,57.6,47.5,30.26,East,92,6.0,8.0,69,0.00,,,0.00,Wunderground v.1.15,2013-05-23 15:40:00,
2013-05-23 10:50:00,58.4,46.3,30.25,East,88,8.0,13.0,64,0.00,,,0.00,Wunderground v.1.15,2013-05-23 15:50:00,
2013-05-23 11:00:00,58.7,46.5,30.25,East,90,10.0,10.0,64,0.00,,,0.00,Wunderground v.1.15,2013-05-23 16:00:00,
2013-05-23 11:10:00,59.3,46.7,30.25,ENE,63,8.0,8.0,63,0.00,,,0.00,Wunderground v.1.15,2013-05-23 16:10:00,
2013-05-23 11:15:00,59.6,45.7,30.24,ENE,71,9.0,9.0,60,0.00,,,0.00,Wunderground v.1.15,2013-05-23 16:15:00,
2013-05-23 11:25:00,60.3,46.4,30.23,East,93,11.0,14.0,60,0.00,,,0.00,Wunderground v.1.15,2013-05-23 16:25:00,
2013-05-23 11:30:00,60.5,46.5,30.23,East,80,12.0,12.0,60,0.00,,,0.00,Wunderground v.1.15,2013-05-23 16:30:00,
2013-05-23 11:40:00,60.9,45.6,30.23,ENE,74,12.0,12.0,57,0.00,,,0.00,Wunderground v.1.15,2013-05-23 16:40:00,
2013-05-23 11:50:00,61.7,45.8,30.22,East,79,12.0,12.0,56,0.00,,,0.00,Wunderground v.1.15,2013-05-23 16:50:00,
2013-05-23 12:00:00,61.6,44.8,30.22,NE,43,12.0,19.0,54,0.00,,,0.00,Wunderground v.1.15,2013-05-23 17:00:00,
2013-05-23 12:10:00,61.8,44.5,30.22,East,83,13.0,19.0,53,0.00,,,0.00,Wunderground v.1.15,2013-05-23 17:10:00,
2013-05-23 12:20:00,62.3,45.4,30.22,East,79,12.0,19.0,54,0.00,,,0.00,Wunderground v.1.15,2013-05-23 17:20:00,
2013-05-23 12:25:00,62.7,47.2,30.22,East,93,13.0,19.0,57,0.00,,,0.00,Wunderground v.1.15,2013-05-23 17:25:00,
2013-05-23 12:35:00,63.7,45.2,30.22,East,94,12.0,18.0,51,0.00,,,0.00,Wunderground v.1.15,2013-05-23 17:35:00,
2013-05-23 12:45:00,64.3,44.7,30.22,East,96,14.0,19.0,49,0.00,,,0.00,Wunderground v.1.15,2013-05-23 17:45:00,
2013-05-23 12:50:00,64.3,43.1,30.21,East,86,14.0,14.0,46,0.00,,,0.00,Wunderground v.1.15,2013-05-23 17:50:00,
2013-05-23 13:00:00,64.4,45.9,30.21,East,97,15.0,15.0,51,0.00,,,0.00,Wunderground v.1.15,2013-05-23 18:00:00,
2013-05-23 13:10:00,64.6,45.5,30.21,East,98,15.0,15.0,50,0.00,,,0.00,Wunderground v.1.15,2013-05-23 18:10:00,
2013-05-23 13:20:00,65.2,44.5,30.21,ENE,67,14.0,14.0,47,0.00,,,0.00,Wunderground v.1.15,2013-05-23 18:20:00,
2013-05-23 13:25:00,65.2,45.5,30.21,ESE,109,15.0,15.0,49,0.00,,,0.00,Wunderground v.1.15,2013-05-23 18:25:00,
2013-05-23 13:30:00,65.2,44.5,30.21,East,85,15.0,15.0,47,0.00,,,0.00,Wunderground v.1.15,2013-05-23 18:30:00,
2013-05-23 13:40:00,65.9,42.8,30.21,East,94,14.0,19.0,43,0.00,,,0.00,Wunderground v.1.15,2013-05-23 18:40:00,
2013-05-23 13:50:00,66.0,44.0,30.21,ENE,71,16.0,16.0,45,0.00,,,0.00,Wunderground v.1.15,2013-05-23 18:50:00,
2013-05-23 14:00:00,66.4,43.8,30.21,ENE,70,13.0,19.0,44,0.00,,,0.00,Wunderground v.1.15,2013-05-23 19:00:00,
2013-05-23 14:10:00,66.5,43.3,30.22,ESE,114,14.0,19.0,43,0.00,,,0.00,Wunderground v.1.15,2013-05-23 19:10:00,
2013-05-23 14:15:00,66.7,43.5,30.21,East,87,13.0,19.0,43,0.00,,,0.00,Wunderground v.1.15,2013-05-23 19:15:00,
2013-05-23 14:20:00,66.5,42.1,30.21,ENE,65,13.0,19.0,41,0.00,,,0.00,Wunderground v.1.15,2013-05-23 19:20:00,
2013-05-23 14:30:00,67.8,44.5,30.21,East,99,14.0,19.0,43,0.00,,,0.00,Wunderground v.1.15,2013-05-23 19:30:00,
2013-05-23 14:40:00,67.4,44.1,30.21,East,98,11.0,11.0,43,0.00,,,0.00,Wunderground v.1.15,2013-05-23 19:40:00,
2013-05-23 14:50:00,67.0,43.8,30.21,East,90,12.0,19.0,43,0.00,,,0.00,Wunderground v.1.15,2013-05-23 19:50:00,
2013-05-23 15:00:00,67.3,43.4,30.21,ENE,73,14.0,14.0,42,0.00,,,0.00,Wunderground v.1.15,2013-05-23 20:00:00,
2013-05-23 15:10:00,67.5,41.7,30.21,East,94,13.0,19.0,39,0.00,,,0.00,Wunderground v.1.15,2013-05-23 20:10:00,
2013-05-23 15:15:00,67.4,42.9,30.21,ESE,111,12.0,19.0,41,0.00,,,0.00,Wunderground v.1.15,2013-05-23 20:15:00,
2013-05-23 15:25:00,67.7,42.5,30.21,East,83,10.0,19.0,40,0.00,,,0.00,Wunderground v.1.15,2013-05-23 20:25:00,
2013-05-23 15:30:00,68.0,44.0,30.21,East,99,10.0,19.0,42,0.00,,,0.00,Wunderground v.1.15,2013-05-23 20:30:00,
2013-05-23 15:40:00,68.0,42.8,30.21,ESE,103,10.0,10.0,40,0.00,,,0.00,Wunderground v.1.15,2013-05-23 20:40:00,
2013-05-23 15:50:00,68.4,43.1,30.21,East,99,10.0,10.0,40,0.00,,,0.00,Wunderground v.1.15,2013-05-23 20:50:00,
2013-05-23 16:00:00,68.7,42.7,30.20,ESE,107,10.0,19.0,39,0.00,,,0.00,Wunderground v.1.15,2013-05-23 21:00:00,
2013-05-23 16:10:00,68.5,43.9,30.20,East,89,11.0,11.0,41,0.00,,,0.00,Wunderground v.1.15,2013-05-23 21:10:00,
2013-05-23 16:15:00,68.7,43.4,30.20,East,79,12.0,14.0,40,0.00,,,0.00,Wunderground v.1.15,2013-05-23 21:15:00,
2013-05-23 16:25:00,68.5,41.2,30.19,East,96,12.0,19.0,37,0.00,,,0.00,Wunderground v.1.15,2013-05-23 21:25:00,
2013-05-23 16:30:00,68.5,43.2,30.19,East,83,12.0,12.0,40,0.00,,,0.00,Wunderground v.1.15,2013-05-23 21:30:00,
2013-05-23 16:40:00,69.3,43.9,30.19,East,94,10.0,19.0,40,0.00,,,0.00,Wunderground v.1.15,2013-05-23 21:40:00,
2013-05-23 16:50:00,69.2,42.5,30.19,East,94,11.0,19.0,38,0.00,,,0.00,Wunderground v.1.15,2013-05-23 21:50:00,
2013-05-23 17:00:00,68.8,42.1,30.19,East,86,9.0,9.0,38,0.00,,,0.00,Wunderground v.1.15,2013-05-23 22:00:00,
2013-05-23 17:10:00,69.3,41.9,30.18,East,97,9.0,9.0,37,0.00,,,0.00,Wunderground v.1.15,2013-05-23 22:10:00,
2013-05-23 17:20:00,69.3,43.3,30.19,East,84,10.0,10.0,39,0.00,,,0.00,Wunderground v.1.15,2013-05-23 22:20:00,
2013-05-23 17:25:00,69.8,43.0,30.18,ESE,119,8.0,19.0,38,0.00,,,0.00,Wunderground v.1.15,2013-05-23 22:25:00,
2013-05-23 17:30:00,70.0,40.3,30.18,East,92,7.0,19.0,34,0.00,,,0.00,Wunderground v.1.15,2013-05-23 22:30:00,
2013-05-23 17:40:00,70.2,43.4,30.18,East,84,5.0,19.0,38,0.00,,,0.00,Wunderground v.1.15,2013-05-23 22:40:00,
2013-05-23 17:50:00,69.9,41.7,30.18,East,85,7.0,7.0,36,0.00,,,0.00,Wunderground v.1.15,2013-05-23 22:50:00,
2013-05-23 18:00:00,70.3,42.1,30.18,ESE,115,5.0,24.0,36,0.00,,,0.00,Wunderground v.1.15,2013-05-23 23:00:00,
2013-05-23 18:10:00,69.8,42.3,30.18,ESE,106,8.0,8.0,37,0.00,,,0.00,Wunderground v.1.15,2013-05-23 23:10:00,
2013-05-23 18:15:00,69.7,42.3,30.18,East,93,7.0,24.0,37,0.00,,,0.00,Wunderground v.1.15,2013-05-23 23:15:00,
2013-05-23 18:30:00,69.6,42.9,30.18,SE,138,5.0,24.0,38,0.00,,,0.00,Wunderground v.1.15,2013-05-23 23:30:00,
2013-05-23 18:40:00,69.7,42.9,30.18,SE,136,5.0,5.0,38,0.00,,,0.00,Wunderground v.1.15,2013-05-23 23:40:00,
2013-05-23 18:50:00,69.4,42.0,30.18,SE,130,5.0,24.0,37,0.00,,,0.00,Wunderground v.1.15,2013-05-23 23:50:00,
2013-05-23 18:55:00,69.4,41.3,30.18,ESE,115,4.0,24.0,36,0.00,,,0.00,Wunderground v.1.15,2013-05-23 23:55:00,
2013-05-23 19:00:00,69.3,42.6,30.18,SSE,153,4.0,24.0,38,0.00,,,0.00,Wunderground v.1.15,2013-05-24 00:00:00,
2013-05-23 19:10:00,69.0,40.9,30.17,East,97,4.0,24.0,36,0.00,,,0.00,Wunderground v.1.15,2013-05-24 00:10:00,
2013-05-23 19:20:00,68.0,40.0,30.17,East,93,6.0,6.0,36,0.00,,,0.00,Wunderground v.1.15,2013-05-24 00:20:00,
2013-05-23 19:30:00,67.6,41.1,30.16,East,98,5.0,24.0,38,0.00,,,0.00,Wunderground v.1.15,2013-05-24 00:30:00,
2013-05-23 19:45:00,67.0,40.5,30.16,East,85,6.0,24.0,38,0.00,,,0.00,Wunderground v.1.15,2013-05-24 00:45:00,
2013-05-23 19:55:00,66.3,41.2,30.16,ESE,123,6.0,24.0,40,0.00,,,0.00,Wunderground v.1.15,2013-05-24 00:55:00,
2013-05-23 20:00:00,66.0,40.3,30.16,East,94,6.0,24.0,39,0.00,,,0.00,Wunderground v.1.15,2013-05-24 01:00:00,
2013-05-23 20:10:00,65.5,41.2,30.16,ESE,108,6.0,6.0,41,0.00,,,0.00,Wunderground v.1.15,2013-05-24 01:10:00,
2013-05-23 20:20:00,65.0,40.7,30.16,East,96,6.0,24.0,41,0.00,,,0.00,Wunderground v.1.15,2013-05-24 01:20:00,
2013-05-23 20:25:00,64.5,40.9,30.16,East,99,6.0,24.0,42,0.00,,,0.00,Wunderground v.1.15,2013-05-24 01:25:00,
2013-05-23 20:30:00,64.1,41.1,30.16,ESE,107,5.0,5.0,43,0.00,,,0.00,Wunderground v.1.15,2013-05-24 01:30:00,
2013-05-23 20:40:00,63.5,41.2,30.16,East,98,6.0,6.0,44,0.00,,,0.00,Wunderground v.1.15,2013-05-24 01:40:00,
2013-05-23 20:50:00,63.0,41.9,30.16,East,98,6.0,24.0,46,0.00,,,0.00,Wunderground v.1.15,2013-05-24 01:50:00,
2013-05-23 21:00:00,62.4,41.9,30.16,East,98,6.0,6.0,47,0.00,,,0.00,Wunderground v.1.15,2013-05-24 02:00:00,
2013-05-23 21:10:00,61.8,41.9,30.16,ESE,113,5.0,24.0,48,0.00,,,0.00,Wunderground v.1.15,2013-05-24 02:10:00,
2013-05-23 21:15:00,61.5,42.2,30.16,East,92,6.0,24.0,49,0.00,,,0.00,Wunderground v.1.15,2013-05-24 02:15:00,
2013-05-23 21:25:00,61.1,41.8,30.16,East,98,6.0,24.0,49,0.00,,,0.00,Wunderground v.1.15,2013-05-24 02:25:00,
2013-05-23 21:30:00,61.0,41.7,30.16,ESE,105,6.0,6.0,49,0.00,,,0.00,Wunderground v.1.15,2013-05-24 02:30:00,
2013-05-23 21:40:00,60.4,41.7,30.17,ESE,111,5.0,5.0,50,0.00,,,0.00,Wunderground v.1.15,2013-05-24 02:40:00,
2013-05-23 21:50:00,59.3,42.2,30.17,ESE,107,2.0,24.0,53,0.00,,,0.00,Wunderground v.1.15,2013-05-24 02:50:00,
2013-05-23 21:55:00,58.9,41.8,30.17,ESE,114,2.0,24.0,53,0.00,,,0.00,Wunderground v.1.15,2013-05-24 02:55:00,
2013-05-23 22:00:00,58.6,42.0,30.18,East,97,2.0,2.0,54,0.00,,,0.00,Wunderground v.1.15,2013-05-24 03:00:00,
2013-05-23 22:10:00,57.7,42.6,30.18,East,97,1.0,1.0,57,0.00,,,0.00,Wunderground v.1.15,2013-05-24 03:10:00,
2013-05-23 22:20:00,57.0,42.4,30.19,East,97,1.0,24.0,58,0.00,,,0.00,Wunderground v.1.15,2013-05-24 03:20:00,
2013-05-23 22:30:00,56.6,42.4,30.20,East,97,1.0,1.0,59,0.00,,,0.00,Wunderground v.1.15,2013-05-24 03:30:00,
2013-05-23 22:40:00,56.0,42.3,30.20,East,97,1.0,24.0,60,0.00,,,0.00,Wunderground v.1.15,2013-05-24 03:40:00,
2013-05-23 22:50:00,55.9,42.6,30.20,East,97,2.0,2.0,61,0.00,,,0.00,Wunderground v.1.15,2013-05-24 03:50:00,
2013-05-23 22:55:00,55.8,42.5,30.21,East,97,1.0,24.0,61,0.00,,,0.00,Wunderground v.1.15,2013-05-24 03:55:00,
2013-05-23 23:05:00,55.4,42.2,30.21,East,97,2.0,24.0,61,0.00,,,0.00,Wunderground v.1.15,2013-05-24 04:05:00,
2013-05-23 23:10:00,55.2,42.4,30.20,East,97,2.0,2.0,62,0.00,,,0.00,Wunderground v.1.15,2013-05-24 04:10:00,
2013-05-23 23:20:00,54.8,42.4,30.20,East,97,2.0,2.0,63,0.00,,,0.00,Wunderground v.1.15,2013-05-24 04:20:00,
2013-05-23 23:30:00,54.5,42.6,30.20,East,97,1.0,24.0,64,0.00,,,0.00,Wunderground v.1.15,2013-05-24 04:30:00,
2013-05-23 23:40:00,54.1,42.2,30.19,East,97,2.0,24.0,64,0.00,,,0.00,Wunderground v.1.15,2013-05-24 04:40:00,
2013-05-23 23:45:00,54.0,42.5,30.19,East,97,2.0,24.0,65,0.00,,,0.00,Wunderground v.1.15,2013-05-24 04:45:00,
2013-05-23 23:55:00,54.1,42.2,30.19,East,97,2.0,24.0,64,0.00,,,0.00,Wunderground v.1.15,2013-05-24 04:55:00,